QAK618 MMAA-MMMY
Flight info
| Callsign | QAK618 |
|---|---|
| Flight time | N/A |
| Altitude | 28000 |
| Route | ALNUS1B ALNUS UT117 ESPOS/N0486F290 DCT AXIRI/N0479F280 UT138 TALPU/N0482F300 UT138 CVM UJ15E RETOS RETOS1A |
| Aircraft | B722/M-SDFGHRWY/C |
Departure
| Time | 2026-04-28 14:15 |
|---|---|
| Airport | General Juan N. Álvarez International Airport (MMAA) |
Arrival
| Time | N/A |
|---|---|
| Airport | Monterrey International Airport (MMMY) |
| Time | Latitude | Longitude | Altitude | Speed | Heading |
|---|---|---|---|---|---|
| 2026-04-28 13:41 | 16.76041 | -99.75231 | 24 ft | 0 kts | 333° |
| 2026-04-28 14:02 | 16.76042 | -99.75232 | 24 ft | 0 kts | 333° |
| 2026-04-28 14:02 | 16.76030 | -99.75225 | 25 ft | 3 kts | 333° |
| 2026-04-28 14:03 | 16.76002 | -99.75211 | 26 ft | 2 kts | 333° |
| 2026-04-28 14:03 | 16.76002 | -99.75210 | 26 ft | 0 kts | 333° |
| 2026-04-28 14:03 | 16.76004 | -99.75212 | 25 ft | 1 kts | 320° |
| 2026-04-28 14:04 | 16.76004 | -99.75227 | 26 ft | 4 kts | 245° |
| 2026-04-28 14:04 | 16.75979 | -99.75276 | 24 ft | 10 kts | 242° |
| 2026-04-28 14:04 | 16.75935 | -99.75340 | 24 ft | 11 kts | 209° |
| 2026-04-28 14:04 | 16.75889 | -99.75311 | 25 ft | 10 kts | 112° |
| 2026-04-28 14:05 | 16.75862 | -99.75227 | 24 ft | 14 kts | 108° |
| 2026-04-28 14:05 | 16.75830 | -99.75123 | 24 ft | 16 kts | 108° |
| 2026-04-28 14:05 | 16.75792 | -99.75003 | 24 ft | 18 kts | 108° |
| 2026-04-28 14:05 | 16.75750 | -99.74871 | 24 ft | 20 kts | 107° |
| 2026-04-28 14:06 | 16.75704 | -99.74724 | 24 ft | 22 kts | 108° |
| 2026-04-28 14:06 | 16.75656 | -99.74571 | 25 ft | 23 kts | 107° |
| 2026-04-28 14:06 | 16.75608 | -99.74416 | 24 ft | 22 kts | 108° |
| 2026-04-28 14:06 | 16.75558 | -99.74258 | 24 ft | 23 kts | 108° |
| 2026-04-28 14:07 | 16.75507 | -99.74092 | 24 ft | 25 kts | 108° |
| 2026-04-28 14:07 | 16.75453 | -99.73920 | 25 ft | 26 kts | 108° |
| 2026-04-28 14:07 | 16.75393 | -99.73737 | 24 ft | 27 kts | 109° |
| 2026-04-28 14:07 | 16.75335 | -99.73546 | 25 ft | 28 kts | 107° |
| 2026-04-28 14:08 | 16.75283 | -99.73376 | 27 ft | 16 kts | 108° |
| 2026-04-28 14:08 | 16.75201 | -99.73334 | 25 ft | 15 kts | 197° |
| 2026-04-28 14:08 | 16.75168 | -99.73345 | 25 ft | 0 kts | 198° |
| 2026-04-28 14:12 | 16.75154 | -99.73350 | 25 ft | 6 kts | 198° |
| 2026-04-28 14:13 | 16.75098 | -99.73368 | 25 ft | 8 kts | 198° |
| 2026-04-28 14:13 | 16.75089 | -99.73397 | 25 ft | 0 kts | 284° |
| 2026-04-28 14:13 | 16.75089 | -99.73399 | 25 ft | 5 kts | 284° |
| 2026-04-28 14:13 | 16.75170 | -99.73660 | 24 ft | 68 kts | 289° |
| 2026-04-28 14:14 | 16.75366 | -99.74285 | 24 ft | 113 kts | 288° |
| 2026-04-28 14:14 | 16.75650 | -99.75196 | 27 ft | 146 kts | 288° |
| 2026-04-28 14:14 | 16.75986 | -99.76233 | 223 ft | 157 kts | 290° |
| 2026-04-28 14:14 | 16.76307 | -99.77353 | 513 ft | 166 kts | 283° |
| 2026-04-28 14:15 | 16.76626 | -99.78525 | 896 ft | 165 kts | 289° |
| 2026-04-28 14:15 | 16.76993 | -99.79627 | 1378 ft | 158 kts | 288° |
| 2026-04-28 14:15 | 16.77342 | -99.80724 | 1548 ft | 166 kts | 288° |
| 2026-04-28 14:15 | 16.77713 | -99.81882 | 1986 ft | 164 kts | 289° |
| 2026-04-28 14:16 | 16.78069 | -99.82999 | 2435 ft | 166 kts | 288° |
| 2026-04-28 14:16 | 16.78436 | -99.84154 | 2832 ft | 170 kts | 289° |
| 2026-04-28 14:16 | 16.78822 | -99.85368 | 3146 ft | 181 kts | 289° |
| 2026-04-28 14:16 | 16.79233 | -99.86641 | 3470 ft | 190 kts | 291° |
| 2026-04-28 14:17 | 16.80009 | -99.87764 | 3768 ft | 196 kts | 324° |
| 2026-04-28 14:17 | 16.81247 | -99.88413 | 4031 ft | 206 kts | 346° |
| 2026-04-28 14:17 | 16.82703 | -99.88567 | 4221 ft | 219 kts | 6° |
| 2026-04-28 14:17 | 16.84264 | -99.88162 | 4421 ft | 247 kts | 25° |
| 2026-04-28 14:18 | 16.85811 | -99.87172 | 4660 ft | 278 kts | 40° |
| 2026-04-28 14:18 | 16.87340 | -99.85745 | 4910 ft | 309 kts | 44° |
| 2026-04-28 14:18 | 16.88992 | -99.84145 | 5137 ft | 338 kts | 43° |
| 2026-04-28 14:18 | 16.90823 | -99.82452 | 5346 ft | 365 kts | 41° |
| 2026-04-28 14:19 | 16.92854 | -99.80706 | 5536 ft | 391 kts | 39° |
| 2026-04-28 14:19 | 16.95086 | -99.78949 | 5715 ft | 413 kts | 36° |
| 2026-04-28 14:19 | 16.96215 | -99.78124 | 5799 ft | 0 kts | 34° |